sensor_id;sensor_type;location;lat;lon;timestamp;P1;durP1;ratioP1;P2;durP2;ratioP2
11121;SDS011;5615;49.304;10.576;2023-05-16T00:01:21;19.23;;;17.23;;
11121;SDS011;5615;49.304;10.576;2023-05-16T00:03:48;17.53;;;15.83;;
11121;SDS011;5615;49.304;10.576;2023-05-16T00:06:16;17.93;;;16.10;;
11121;SDS011;5615;49.304;10.576;2023-05-16T00:08:43;17.97;;;16.23;;
11121;SDS011;5615;49.304;10.576;2023-05-16T00:11:10;18.20;;;16.20;;
11121;SDS011;5615;49.304;10.576;2023-05-16T00:13:36;18.60;;;16.70;;
11121;SDS011;5615;49.304;10.576;2023-05-16T00:16:06;19.67;;;16.93;;
11121;SDS011;5615;49.304;10.576;2023-05-16T00:18:33;20.10;;;17.93;;
11121;SDS011;5615;49.304;10.576;2023-05-16T00:21:01;20.87;;;18.07;;
11121;SDS011;5615;49.304;10.576;2023-05-16T00:23:29;20.37;;;18.27;;
11121;SDS011;5615;49.304;10.576;2023-05-16T00:25:56;20.93;;;17.90;;
11121;SDS011;5615;49.304;10.576;2023-05-16T00:28:23;19.50;;;17.43;;
11121;SDS011;5615;49.304;10.576;2023-05-16T00:30:49;19.93;;;17.83;;
11121;SDS011;5615;49.304;10.576;2023-05-16T00:33:16;21.50;;;18.10;;
11121;SDS011;5615;49.304;10.576;2023-05-16T00:35:43;20.77;;;18.67;;
11121;SDS011;5615;49.304;10.576;2023-05-16T00:38:09;20.57;;;18.30;;
11121;SDS011;5615;49.304;10.576;2023-05-16T00:40:37;21.90;;;19.70;;
11121;SDS011;5615;49.304;10.576;2023-05-16T00:43:04;21.23;;;18.57;;
11121;SDS011;5615;49.304;10.576;2023-05-16T00:45:31;22.30;;;19.90;;
11121;SDS011;5615;49.304;10.576;2023-05-16T00:47:58;24.27;;;19.73;;
11121;SDS011;5615;49.304;10.576;2023-05-16T00:50:24;22.30;;;20.00;;
11121;SDS011;5615;49.304;10.576;2023-05-16T00:52:51;21.87;;;19.57;;
11121;SDS011;5615;49.304;10.576;2023-05-16T00:55:18;27.93;;;18.77;;
11121;SDS011;5615;49.304;10.576;2023-05-16T00:57:46;22.70;;;20.43;;
11121;SDS011;5615;49.304;10.576;2023-05-16T01:00:13;22.80;;;19.43;;
11121;SDS011;5615;49.304;10.576;2023-05-16T01:02:40;22.97;;;20.43;;
11121;SDS011;5615;49.304;10.576;2023-05-16T01:05:08;24.67;;;21.47;;
11121;SDS011;5615;49.304;10.576;2023-05-16T01:07:34;23.63;;;21.17;;
11121;SDS011;5615;49.304;10.576;2023-05-16T01:10:01;25.70;;;22.00;;
11121;SDS011;5615;49.304;10.576;2023-05-16T01:12:31;22.90;;;20.50;;
11121;SDS011;5615;49.304;10.576;2023-05-16T01:15:08;22.83;;;20.43;;
11121;SDS011;5615;49.304;10.576;2023-05-16T01:17:43;23.53;;;21.07;;
11121;SDS011;5615;49.304;10.576;2023-05-16T01:20:18;24.27;;;21.37;;
11121;SDS011;5615;49.304;10.576;2023-05-16T01:22:58;23.83;;;21.23;;
11121;SDS011;5615;49.304;10.576;2023-05-16T01:25:36;23.60;;;21.17;;
11121;SDS011;5615;49.304;10.576;2023-05-16T01:28:13;23.53;;;20.57;;
11121;SDS011;5615;49.304;10.576;2023-05-16T01:30:41;23.47;;;20.87;;
11121;SDS011;5615;49.304;10.576;2023-05-16T01:33:08;23.93;;;21.43;;
11121;SDS011;5615;49.304;10.576;2023-05-16T01:35:36;24.57;;;21.17;;
11121;SDS011;5615;49.304;10.576;2023-05-16T01:38:09;26.87;;;22.50;;
11121;SDS011;5615;49.304;10.576;2023-05-16T01:40:43;26.23;;;22.57;;
11121;SDS011;5615;49.304;10.576;2023-05-16T01:43:19;24.90;;;22.23;;
11121;SDS011;5615;49.304;10.576;2023-05-16T01:45:49;28.00;;;23.60;;
11121;SDS011;5615;49.304;10.576;2023-05-16T01:48:21;25.60;;;22.77;;
11121;SDS011;5615;49.304;10.576;2023-05-16T01:50:52;25.73;;;22.83;;
11121;SDS011;5615;49.304;10.576;2023-05-16T01:53:22;29.13;;;23.67;;
11121;SDS011;5615;49.304;10.576;2023-05-16T01:55:55;26.23;;;23.27;;
11121;SDS011;5615;49.304;10.576;2023-05-16T01:58:25;29.90;;;23.63;;
11121;SDS011;5615;49.304;10.576;2023-05-16T02:00:58;28.70;;;24.40;;
11121;SDS011;5615;49.304;10.576;2023-05-16T02:03:26;26.27;;;23.47;;
11121;SDS011;5615;49.304;10.576;2023-05-16T02:05:53;27.80;;;24.27;;
11121;SDS011;5615;49.304;10.576;2023-05-16T02:08:19;29.17;;;24.07;;
11121;SDS011;5615;49.304;10.576;2023-05-16T02:10:46;26.43;;;23.67;;
11121;SDS011;5615;49.304;10.576;2023-05-16T02:13:13;28.37;;;25.20;;
11121;SDS011;5615;49.304;10.576;2023-05-16T02:15:41;27.33;;;24.23;;
11121;SDS011;5615;49.304;10.576;2023-05-16T02:18:07;28.73;;;24.47;;
11121;SDS011;5615;49.304;10.576;2023-05-16T02:20:35;29.73;;;25.33;;
11121;SDS011;5615;49.304;10.576;2023-05-16T02:23:01;31.23;;;24.47;;
11121;SDS011;5615;49.304;10.576;2023-05-16T02:25:28;28.63;;;25.30;;
11121;SDS011;5615;49.304;10.576;2023-05-16T02:27:55;28.37;;;24.10;;
11121;SDS011;5615;49.304;10.576;2023-05-16T02:30:21;27.87;;;24.87;;
11121;SDS011;5615;49.304;10.576;2023-05-16T02:32:49;30.90;;;24.70;;
11121;SDS011;5615;49.304;10.576;2023-05-16T02:35:17;29.10;;;25.13;;
11121;SDS011;5615;49.304;10.576;2023-05-16T02:37:44;30.40;;;25.47;;
11121;SDS011;5615;49.304;10.576;2023-05-16T02:40:11;27.17;;;24.23;;
11121;SDS011;5615;49.304;10.576;2023-05-16T02:42:39;28.50;;;25.07;;
11121;SDS011;5615;49.304;10.576;2023-05-16T02:45:06;27.97;;;24.93;;
11121;SDS011;5615;49.304;10.576;2023-05-16T02:47:33;28.63;;;24.77;;
11121;SDS011;5615;49.304;10.576;2023-05-16T02:50:01;27.73;;;24.80;;
11121;SDS011;5615;49.304;10.576;2023-05-16T02:52:28;28.83;;;24.83;;
11121;SDS011;5615;49.304;10.576;2023-05-16T02:54:54;28.83;;;24.63;;
11121;SDS011;5615;49.304;10.576;2023-05-16T02:57:21;28.67;;;25.47;;
11121;SDS011;5615;49.304;10.576;2023-05-16T02:59:47;29.20;;;25.50;;
11121;SDS011;5615;49.304;10.576;2023-05-16T03:02:14;29.70;;;26.43;;
11121;SDS011;5615;49.304;10.576;2023-05-16T03:04:41;28.83;;;25.30;;
11121;SDS011;5615;49.304;10.576;2023-05-16T03:07:09;33.07;;;25.43;;
11121;SDS011;5615;49.304;10.576;2023-05-16T03:09:35;29.13;;;24.83;;
11121;SDS011;5615;49.304;10.576;2023-05-16T03:12:02;31.60;;;25.13;;
11121;SDS011;5615;49.304;10.576;2023-05-16T03:14:29;29.27;;;25.70;;
11121;SDS011;5615;49.304;10.576;2023-05-16T03:16:56;29.10;;;24.73;;
11121;SDS011;5615;49.304;10.576;2023-05-16T03:19:22;29.30;;;24.57;;
11121;SDS011;5615;49.304;10.576;2023-05-16T03:21:49;28.83;;;25.00;;
11121;SDS011;5615;49.304;10.576;2023-05-16T03:24:17;28.93;;;25.43;;
11121;SDS011;5615;49.304;10.576;2023-05-16T03:26:45;30.10;;;24.67;;
11121;SDS011;5615;49.304;10.576;2023-05-16T03:29:12;30.73;;;25.53;;
11121;SDS011;5615;49.304;10.576;2023-05-16T03:31:39;29.50;;;25.63;;
11121;SDS011;5615;49.304;10.576;2023-05-16T03:34:06;30.27;;;25.93;;
11121;SDS011;5615;49.304;10.576;2023-05-16T03:36:32;30.53;;;26.33;;
11121;SDS011;5615;49.304;10.576;2023-05-16T03:38:59;29.37;;;25.83;;
11121;SDS011;5615;49.304;10.576;2023-05-16T03:41:27;31.20;;;25.67;;
11121;SDS011;5615;49.304;10.576;2023-05-16T03:43:54;28.30;;;25.20;;
11121;SDS011;5615;49.304;10.576;2023-05-16T03:46:21;28.70;;;24.50;;
11121;SDS011;5615;49.304;10.576;2023-05-16T03:48:47;30.03;;;25.53;;
11121;SDS011;5615;49.304;10.576;2023-05-16T03:51:14;28.77;;;24.00;;
11121;SDS011;5615;49.304;10.576;2023-05-16T03:53:40;26.97;;;24.07;;
11121;SDS011;5615;49.304;10.576;2023-05-16T03:56:07;28.53;;;25.17;;
11121;SDS011;5615;49.304;10.576;2023-05-16T03:58:35;26.00;;;23.10;;
11121;SDS011;5615;49.304;10.576;2023-05-16T04:01:02;27.00;;;23.60;;
11121;SDS011;5615;49.304;10.576;2023-05-16T04:03:28;28.13;;;23.60;;
11121;SDS011;5615;49.304;10.576;2023-05-16T04:05:56;25.40;;;22.80;;
11121;SDS011;5615;49.304;10.576;2023-05-16T04:08:22;23.83;;;21.13;;
11121;SDS011;5615;49.304;10.576;2023-05-16T04:10:49;23.90;;;21.30;;
11121;SDS011;5615;49.304;10.576;2023-05-16T04:13:16;22.83;;;20.43;;
11121;SDS011;5615;49.304;10.576;2023-05-16T04:15:44;22.63;;;20.30;;
11121;SDS011;5615;49.304;10.576;2023-05-16T04:18:11;21.60;;;19.40;;
11121;SDS011;5615;49.304;10.576;2023-05-16T04:20:38;20.90;;;18.70;;
11121;SDS011;5615;49.304;10.576;2023-05-16T04:23:06;21.17;;;18.87;;
11121;SDS011;5615;49.304;10.576;2023-05-16T04:25:34;19.63;;;17.63;;
11121;SDS011;5615;49.304;10.576;2023-05-16T04:28:01;22.20;;;18.27;;
11121;SDS011;5615;49.304;10.576;2023-05-16T04:30:28;21.37;;;18.53;;
11121;SDS011;5615;49.304;10.576;2023-05-16T04:32:56;21.57;;;18.47;;
11121;SDS011;5615;49.304;10.576;2023-05-16T04:35:23;20.67;;;18.47;;
11121;SDS011;5615;49.304;10.576;2023-05-16T04:37:50;20.40;;;17.50;;
11121;SDS011;5615;49.304;10.576;2023-05-16T04:40:17;21.70;;;17.23;;
11121;SDS011;5615;49.304;10.576;2023-05-16T04:42:43;19.23;;;17.23;;
11121;SDS011;5615;49.304;10.576;2023-05-16T04:45:10;20.23;;;17.17;;
11121;SDS011;5615;49.304;10.576;2023-05-16T04:47:38;17.57;;;15.67;;
11121;SDS011;5615;49.304;10.576;2023-05-16T04:50:08;20.37;;;16.30;;
11121;SDS011;5615;49.304;10.576;2023-05-16T04:52:35;20.17;;;16.20;;
11121;SDS011;5615;49.304;10.576;2023-05-16T04:55:02;17.37;;;15.67;;
11121;SDS011;5615;49.304;10.576;2023-05-16T04:57:29;21.87;;;16.10;;
11121;SDS011;5615;49.304;10.576;2023-05-16T04:59:56;17.77;;;15.90;;
11121;SDS011;5615;49.304;10.576;2023-05-16T05:02:22;17.70;;;15.90;;
11121;SDS011;5615;49.304;10.576;2023-05-16T05:04:49;17.13;;;15.33;;
11121;SDS011;5615;49.304;10.576;2023-05-16T05:07:17;17.07;;;15.37;;
11121;SDS011;5615;49.304;10.576;2023-05-16T05:09:44;17.60;;;15.90;;
11121;SDS011;5615;49.304;10.576;2023-05-16T05:12:10;19.50;;;15.67;;
11121;SDS011;5615;49.304;10.576;2023-05-16T05:14:37;17.20;;;15.20;;
11121;SDS011;5615;49.304;10.576;2023-05-16T05:17:04;15.83;;;14.13;;
11121;SDS011;5615;49.304;10.576;2023-05-16T05:19:30;16.37;;;14.77;;
11121;SDS011;5615;49.304;10.576;2023-05-16T05:21:57;15.97;;;14.37;;
11121;SDS011;5615;49.304;10.576;2023-05-16T05:24:25;18.43;;;15.57;;
11121;SDS011;5615;49.304;10.576;2023-05-16T05:26:52;16.07;;;14.43;;
11121;SDS011;5615;49.304;10.576;2023-05-16T05:29:18;16.70;;;14.97;;
11121;SDS011;5615;49.304;10.576;2023-05-16T05:31:45;16.33;;;14.73;;
11121;SDS011;5615;49.304;10.576;2023-05-16T05:34:11;16.07;;;14.43;;
11121;SDS011;5615;49.304;10.576;2023-05-16T05:36:38;15.97;;;14.50;;
11121;SDS011;5615;49.304;10.576;2023-05-16T05:39:05;17.40;;;15.63;;
11121;SDS011;5615;49.304;10.576;2023-05-16T05:41:33;16.00;;;14.33;;
11121;SDS011;5615;49.304;10.576;2023-05-16T05:43:59;16.73;;;15.03;;
11121;SDS011;5615;49.304;10.576;2023-05-16T05:46:26;16.60;;;14.80;;
11121;SDS011;5615;49.304;10.576;2023-05-16T05:48:53;15.77;;;13.90;;
11121;SDS011;5615;49.304;10.576;2023-05-16T05:51:19;15.30;;;13.80;;
11121;SDS011;5615;49.304;10.576;2023-05-16T05:53:46;15.80;;;14.10;;
11121;SDS011;5615;49.304;10.576;2023-05-16T05:56:13;16.57;;;14.83;;
11121;SDS011;5615;49.304;10.576;2023-05-16T05:58:41;15.33;;;13.50;;
11121;SDS011;5615;49.304;10.576;2023-05-16T06:01:09;15.00;;;13.53;;
11121;SDS011;5615;49.304;10.576;2023-05-16T06:03:35;14.83;;;13.33;;
11121;SDS011;5615;49.304;10.576;2023-05-16T06:06:02;13.97;;;12.67;;
11121;SDS011;5615;49.304;10.576;2023-05-16T06:08:29;14.13;;;12.67;;
11121;SDS011;5615;49.304;10.576;2023-05-16T06:10:56;13.17;;;11.93;;
11121;SDS011;5615;49.304;10.576;2023-05-16T06:13:22;12.67;;;11.47;;
11121;SDS011;5615;49.304;10.576;2023-05-16T06:15:50;13.43;;;12.03;;
11121;SDS011;5615;49.304;10.576;2023-05-16T06:18:18;15.03;;;12.73;;
11121;SDS011;5615;49.304;10.576;2023-05-16T06:20:44;14.23;;;12.90;;
11121;SDS011;5615;49.304;10.576;2023-05-16T06:23:11;15.23;;;13.63;;
11121;SDS011;5615;49.304;10.576;2023-05-16T06:25:38;14.00;;;12.70;;
11121;SDS011;5615;49.304;10.576;2023-05-16T06:28:05;14.40;;;13.03;;
11121;SDS011;5615;49.304;10.576;2023-05-16T06:30:32;13.37;;;12.03;;
11121;SDS011;5615;49.304;10.576;2023-05-16T06:33:00;13.47;;;12.20;;
11121;SDS011;5615;49.304;10.576;2023-05-16T06:35:26;13.17;;;11.87;;
11121;SDS011;5615;49.304;10.576;2023-05-16T06:37:53;14.43;;;12.93;;
11121;SDS011;5615;49.304;10.576;2023-05-16T06:40:19;13.53;;;12.23;;
11121;SDS011;5615;49.304;10.576;2023-05-16T06:42:46;14.33;;;13.03;;
11121;SDS011;5615;49.304;10.576;2023-05-16T06:45:13;14.17;;;12.83;;
11121;SDS011;5615;49.304;10.576;2023-05-16T06:47:39;15.47;;;13.97;;
11121;SDS011;5615;49.304;10.576;2023-05-16T06:50:08;16.67;;;13.93;;
11121;SDS011;5615;49.304;10.576;2023-05-16T06:52:35;16.17;;;14.47;;
11121;SDS011;5615;49.304;10.576;2023-05-16T06:55:01;14.77;;;13.37;;
11121;SDS011;5615;49.304;10.576;2023-05-16T06:57:28;15.47;;;13.87;;
11121;SDS011;5615;49.304;10.576;2023-05-16T06:59:55;14.83;;;13.33;;
11121;SDS011;5615;49.304;10.576;2023-05-16T07:02:21;14.67;;;13.20;;
11121;SDS011;5615;49.304;10.576;2023-05-16T07:04:48;15.23;;;13.83;;
11121;SDS011;5615;49.304;10.576;2023-05-16T07:07:16;15.97;;;14.47;;
11121;SDS011;5615;49.304;10.576;2023-05-16T07:09:43;16.30;;;13.90;;
11121;SDS011;5615;49.304;10.576;2023-05-16T07:12:09;14.90;;;13.30;;
11121;SDS011;5615;49.304;10.576;2023-05-16T07:14:36;15.57;;;14.03;;
11121;SDS011;5615;49.304;10.576;2023-05-16T07:17:03;14.20;;;13.00;;
11121;SDS011;5615;49.304;10.576;2023-05-16T07:19:30;14.03;;;12.63;;
11121;SDS011;5615;49.304;10.576;2023-05-16T07:21:56;14.33;;;12.57;;
11121;SDS011;5615;49.304;10.576;2023-05-16T07:24:24;13.77;;;12.57;;
11121;SDS011;5615;49.304;10.576;2023-05-16T07:26:51;13.43;;;12.13;;
11121;SDS011;5615;49.304;10.576;2023-05-16T07:29:17;14.20;;;12.80;;
11121;SDS011;5615;49.304;10.576;2023-05-16T07:31:44;14.00;;;12.70;;
11121;SDS011;5615;49.304;10.576;2023-05-16T07:34:11;13.87;;;12.43;;
11121;SDS011;5615;49.304;10.576;2023-05-16T07:36:37;15.67;;;12.67;;
11121;SDS011;5615;49.304;10.576;2023-05-16T07:39:04;13.95;;;12.60;;
11121;SDS011;5615;49.304;10.576;2023-05-16T07:41:32;13.27;;;12.00;;
11121;SDS011;5615;49.304;10.576;2023-05-16T07:43:58;12.98;;;11.57;;
11121;SDS011;5615;49.304;10.576;2023-05-16T07:46:25;12.90;;;11.80;;
11121;SDS011;5615;49.304;10.576;2023-05-16T07:48:52;13.23;;;12.05;;
11121;SDS011;5615;49.304;10.576;2023-05-16T07:51:18;12.85;;;11.65;;
11121;SDS011;5615;49.304;10.576;2023-05-16T07:53:45;12.38;;;11.30;;
11121;SDS011;5615;49.304;10.576;2023-05-16T07:56:11;19.70;;;12.55;;
11121;SDS011;5615;49.304;10.576;2023-05-16T07:58:40;12.43;;;11.23;;
11121;SDS011;5615;49.304;10.576;2023-05-16T08:01:06;14.48;;;13.18;;
11121;SDS011;5615;49.304;10.576;2023-05-16T08:03:33;15.30;;;13.82;;
11121;SDS011;5615;49.304;10.576;2023-05-16T08:06:00;14.52;;;13.13;;
11121;SDS011;5615;49.304;10.576;2023-05-16T08:08:27;14.45;;;13.05;;
11121;SDS011;5615;49.304;10.576;2023-05-16T08:10:54;15.02;;;13.57;;
11121;SDS011;5615;49.304;10.576;2023-05-16T08:13:20;13.90;;;12.60;;
11121;SDS011;5615;49.304;10.576;2023-05-16T08:15:48;14.82;;;13.32;;
11121;SDS011;5615;49.304;10.576;2023-05-16T08:18:15;13.48;;;12.18;;
11121;SDS011;5615;49.304;10.576;2023-05-16T08:20:41;14.35;;;12.88;;
11121;SDS011;5615;49.304;10.576;2023-05-16T08:23:08;13.35;;;12.05;;
11121;SDS011;5615;49.304;10.576;2023-05-16T08:25:35;14.90;;;13.43;;
11121;SDS011;5615;49.304;10.576;2023-05-16T08:28:02;15.63;;;14.13;;
11121;SDS011;5615;49.304;10.576;2023-05-16T08:30:28;16.38;;;14.75;;
11121;SDS011;5615;49.304;10.576;2023-05-16T08:32:56;15.10;;;13.70;;
11121;SDS011;5615;49.304;10.576;2023-05-16T08:35:23;15.70;;;14.20;;
11121;SDS011;5615;49.304;10.576;2023-05-16T08:37:50;15.35;;;13.68;;
11121;SDS011;5615;49.304;10.576;2023-05-16T08:40:16;17.08;;;14.68;;
11121;SDS011;5615;49.304;10.576;2023-05-16T08:42:44;16.42;;;14.73;;
11121;SDS011;5615;49.304;10.576;2023-05-16T08:45:10;16.45;;;14.13;;
11121;SDS011;5615;49.304;10.576;2023-05-16T08:47:38;15.88;;;14.48;;
11121;SDS011;5615;49.304;10.576;2023-05-16T08:50:09;15.57;;;13.98;;
11121;SDS011;5615;49.304;10.576;2023-05-16T08:52:36;15.65;;;14.15;;
11121;SDS011;5615;49.304;10.576;2023-05-16T08:55:05;14.68;;;13.27;;
11121;SDS011;5615;49.304;10.576;2023-05-16T08:57:34;15.63;;;14.13;;
11121;SDS011;5615;49.304;10.576;2023-05-16T09:00:01;13.68;;;12.38;;
11121;SDS011;5615;49.304;10.576;2023-05-16T09:02:35;14.88;;;13.32;;
11121;SDS011;5615;49.304;10.576;2023-05-16T09:05:03;14.83;;;13.43;;
11121;SDS011;5615;49.304;10.576;2023-05-16T09:07:32;15.07;;;13.67;;
11121;SDS011;5615;49.304;10.576;2023-05-16T09:09:58;15.23;;;13.73;;
11121;SDS011;5615;49.304;10.576;2023-05-16T09:12:25;14.98;;;13.52;;
11121;SDS011;5615;49.304;10.576;2023-05-16T09:14:52;14.93;;;13.43;;
11121;SDS011;5615;49.304;10.576;2023-05-16T09:17:20;13.63;;;12.27;;
11121;SDS011;5615;49.304;10.576;2023-05-16T09:19:46;14.53;;;13.10;;
11121;SDS011;5615;49.304;10.576;2023-05-16T09:22:20;16.40;;;14.70;;
11121;SDS011;5615;49.304;10.576;2023-05-16T09:24:50;15.63;;;14.03;;
11121;SDS011;5615;49.304;10.576;2023-05-16T09:27:17;15.10;;;13.70;;
11121;SDS011;5615;49.304;10.576;2023-05-16T09:29:45;15.07;;;13.63;;
11121;SDS011;5615;49.304;10.576;2023-05-16T09:32:16;14.27;;;12.93;;
11121;SDS011;5615;49.304;10.576;2023-05-16T09:34:43;15.60;;;14.07;;
11121;SDS011;5615;49.304;10.576;2023-05-16T09:37:12;15.13;;;13.73;;
11121;SDS011;5615;49.304;10.576;2023-05-16T09:39:40;14.70;;;13.20;;
11121;SDS011;5615;49.304;10.576;2023-05-16T09:42:12;15.40;;;14.00;;
11121;SDS011;5615;49.304;10.576;2023-05-16T09:44:40;16.02;;;14.52;;
11121;SDS011;5615;49.304;10.576;2023-05-16T09:47:07;15.00;;;13.50;;
11121;SDS011;5615;49.304;10.576;2023-05-16T09:49:35;16.27;;;14.67;;
11121;SDS011;5615;49.304;10.576;2023-05-16T09:52:02;15.13;;;13.70;;
11121;SDS011;5615;49.304;10.576;2023-05-16T09:54:29;15.70;;;14.20;;
11121;SDS011;5615;49.304;10.576;2023-05-16T09:56:57;15.75;;;14.15;;
11121;SDS011;5615;49.304;10.576;2023-05-16T09:59:25;15.67;;;14.17;;
11121;SDS011;5615;49.304;10.576;2023-05-16T10:01:56;14.80;;;13.50;;
11121;SDS011;5615;49.304;10.576;2023-05-16T10:04:24;16.67;;;14.97;;
11121;SDS011;5615;49.304;10.576;2023-05-16T10:06:50;16.40;;;14.67;;
11121;SDS011;5615;49.304;10.576;2023-05-16T10:09:18;15.20;;;13.60;;
11121;SDS011;5615;49.304;10.576;2023-05-16T10:11:47;13.77;;;12.47;;
11121;SDS011;5615;49.304;10.576;2023-05-16T10:14:16;14.52;;;13.20;;
11121;SDS011;5615;49.304;10.576;2023-05-16T10:16:46;14.93;;;13.47;;
11121;SDS011;5615;49.304;10.576;2023-05-16T10:19:14;15.23;;;13.90;;
11121;SDS011;5615;49.304;10.576;2023-05-16T10:21:44;15.27;;;13.77;;
11121;SDS011;5615;49.304;10.576;2023-05-16T10:24:16;13.17;;;11.93;;
11121;SDS011;5615;49.304;10.576;2023-05-16T10:26:47;14.55;;;12.35;;
11121;SDS011;5615;49.304;10.576;2023-05-16T10:29:15;13.85;;;12.55;;
11121;SDS011;5615;49.304;10.576;2023-05-16T10:31:42;13.43;;;12.13;;
11121;SDS011;5615;49.304;10.576;2023-05-16T10:34:11;12.45;;;11.13;;
11121;SDS011;5615;49.304;10.576;2023-05-16T10:36:37;12.70;;;11.48;;
11121;SDS011;5615;49.304;10.576;2023-05-16T10:39:04;13.30;;;11.52;;
11121;SDS011;5615;49.304;10.576;2023-05-16T10:41:32;12.70;;;11.50;;
11121;SDS011;5615;49.304;10.576;2023-05-16T10:43:59;11.55;;;10.45;;
11121;SDS011;5615;49.304;10.576;2023-05-16T10:46:26;15.13;;;11.52;;
11121;SDS011;5615;49.304;10.576;2023-05-16T10:48:54;12.10;;;10.73;;
11121;SDS011;5615;49.304;10.576;2023-05-16T10:51:34;11.90;;;10.47;;
11121;SDS011;5615;49.304;10.576;2023-05-16T10:54:07;11.93;;;10.73;;
11121;SDS011;5615;49.304;10.576;2023-05-16T10:56:34;11.18;;;10.07;;
11121;SDS011;5615;49.304;10.576;2023-05-16T10:59:01;10.98;;;9.82;;
11121;SDS011;5615;49.304;10.576;2023-05-16T11:01:29;11.10;;;10.10;;
11121;SDS011;5615;49.304;10.576;2023-05-16T11:06:48;10.95;;;9.85;;
11121;SDS011;5615;49.304;10.576;2023-05-16T11:09:17;12.55;;;10.18;;
11121;SDS011;5615;49.304;10.576;2023-05-16T11:11:46;10.02;;;9.13;;
11121;SDS011;5615;49.304;10.576;2023-05-16T11:14:19;9.80;;;8.80;;
11121;SDS011;5615;49.304;10.576;2023-05-16T11:16:47;8.35;;;7.55;;
11121;SDS011;5615;49.304;10.576;2023-05-16T11:19:27;11.23;;;8.13;;
11121;SDS011;5615;49.304;10.576;2023-05-16T11:22:06;7.78;;;7.07;;
11121;SDS011;5615;49.304;10.576;2023-05-16T11:24:34;8.07;;;7.32;;
11121;SDS011;5615;49.304;10.576;2023-05-16T11:27:02;9.27;;;7.25;;
11121;SDS011;5615;49.304;10.576;2023-05-16T11:29:30;8.35;;;7.45;;
11121;SDS011;5615;49.304;10.576;2023-05-16T11:31:58;8.15;;;6.35;;
11121;SDS011;5615;49.304;10.576;2023-05-16T11:34:26;7.00;;;6.40;;
11121;SDS011;5615;49.304;10.576;2023-05-16T11:36:53;8.18;;;6.82;;
11121;SDS011;5615;49.304;10.576;2023-05-16T11:39:21;7.68;;;6.97;;
11121;SDS011;5615;49.304;10.576;2023-05-16T11:41:49;6.72;;;6.13;;
11121;SDS011;5615;49.304;10.576;2023-05-16T11:44:16;7.32;;;6.65;;
11121;SDS011;5615;49.304;10.576;2023-05-16T11:46:42;8.27;;;7.43;;
11121;SDS011;5615;49.304;10.576;2023-05-16T11:49:09;9.23;;;6.80;;
11121;SDS011;5615;49.304;10.576;2023-05-16T11:51:36;7.28;;;6.68;;
11121;SDS011;5615;49.304;10.576;2023-05-16T11:54:03;7.80;;;7.00;;
11121;SDS011;5615;49.304;10.576;2023-05-16T11:56:32;6.57;;;5.97;;
11121;SDS011;5615;49.304;10.576;2023-05-16T11:59:01;7.15;;;6.55;;
11121;SDS011;5615;49.304;10.576;2023-05-16T12:01:32;6.93;;;6.25;;
11121;SDS011;5615;49.304;10.576;2023-05-16T12:03:59;6.72;;;6.07;;
11121;SDS011;5615;49.304;10.576;2023-05-16T12:06:26;9.10;;;6.07;;
11121;SDS011;5615;49.304;10.576;2023-05-16T12:08:55;7.30;;;6.43;;
11121;SDS011;5615;49.304;10.576;2023-05-16T12:11:21;7.50;;;6.80;;
11121;SDS011;5615;49.304;10.576;2023-05-16T12:13:50;8.00;;;6.63;;
11121;SDS011;5615;49.304;10.576;2023-05-16T12:16:17;7.68;;;6.72;;
11121;SDS011;5615;49.304;10.576;2023-05-16T12:18:44;7.60;;;7.00;;
11121;SDS011;5615;49.304;10.576;2023-05-16T12:21:11;8.68;;;7.60;;
11121;SDS011;5615;49.304;10.576;2023-05-16T12:23:38;8.60;;;7.80;;
11121;SDS011;5615;49.304;10.576;2023-05-16T12:26:07;8.80;;;8.05;;
11121;SDS011;5615;49.304;10.576;2023-05-16T12:28:34;7.95;;;7.18;;
11121;SDS011;5615;49.304;10.576;2023-05-16T12:31:04;7.93;;;7.13;;
11121;SDS011;5615;49.304;10.576;2023-05-16T12:33:37;8.02;;;7.22;;
11121;SDS011;5615;49.304;10.576;2023-05-16T12:36:04;11.85;;;6.78;;
11121;SDS011;5615;49.304;10.576;2023-05-16T12:38:38;8.65;;;7.20;;
11121;SDS011;5615;49.304;10.576;2023-05-16T12:41:05;7.97;;;7.18;;
11121;SDS011;5615;49.304;10.576;2023-05-16T12:43:31;8.10;;;7.30;;
11121;SDS011;5615;49.304;10.576;2023-05-16T12:45:58;7.50;;;6.80;;
11121;SDS011;5615;49.304;10.576;2023-05-16T12:48:30;7.53;;;6.88;;
11121;SDS011;5615;49.304;10.576;2023-05-16T12:51:07;7.30;;;6.65;;
11121;SDS011;5615;49.304;10.576;2023-05-16T12:53:39;8.20;;;7.32;;
11121;SDS011;5615;49.304;10.576;2023-05-16T12:56:08;7.60;;;6.85;;
11121;SDS011;5615;49.304;10.576;2023-05-16T12:58:35;7.72;;;6.90;;
11121;SDS011;5615;49.304;10.576;2023-05-16T13:01:02;7.82;;;7.13;;
11121;SDS011;5615;49.304;10.576;2023-05-16T13:03:30;6.72;;;6.07;;
11121;SDS011;5615;49.304;10.576;2023-05-16T13:05:58;8.10;;;7.30;;
11121;SDS011;5615;49.304;10.576;2023-05-16T13:08:24;9.23;;;8.32;;
11121;SDS011;5615;49.304;10.576;2023-05-16T13:10:51;9.05;;;7.93;;
11121;SDS011;5615;49.304;10.576;2023-05-16T13:13:18;9.00;;;7.82;;
11121;SDS011;5615;49.304;10.576;2023-05-16T13:15:44;10.43;;;7.50;;
11121;SDS011;5615;49.304;10.576;2023-05-16T13:18:12;9.35;;;8.30;;
11121;SDS011;5615;49.304;10.576;2023-05-16T13:20:40;9.50;;;7.67;;
11121;SDS011;5615;49.304;10.576;2023-05-16T13:23:07;10.70;;;8.13;;
11121;SDS011;5615;49.304;10.576;2023-05-16T13:25:34;7.93;;;7.20;;
11121;SDS011;5615;49.304;10.576;2023-05-16T13:28:00;8.00;;;7.20;;
11121;SDS011;5615;49.304;10.576;2023-05-16T13:30:27;7.40;;;6.70;;
11121;SDS011;5615;49.304;10.576;2023-05-16T13:32:54;7.03;;;6.13;;
11121;SDS011;5615;49.304;10.576;2023-05-16T13:35:21;9.15;;;6.40;;
11121;SDS011;5615;49.304;10.576;2023-05-16T13:37:49;5.70;;;5.20;;
11121;SDS011;5615;49.304;10.576;2023-05-16T13:40:16;6.35;;;5.75;;
11121;SDS011;5615;49.304;10.576;2023-05-16T13:42:42;5.85;;;5.35;;
11121;SDS011;5615;49.304;10.576;2023-05-16T13:45:09;5.50;;;5.00;;
11121;SDS011;5615;49.304;10.576;2023-05-16T13:47:36;6.13;;;5.53;;
11121;SDS011;5615;49.304;10.576;2023-05-16T13:50:03;7.75;;;6.18;;
11121;SDS011;5615;49.304;10.576;2023-05-16T13:52:33;5.88;;;5.28;;
11121;SDS011;5615;49.304;10.576;2023-05-16T13:55:01;7.35;;;5.65;;
11121;SDS011;5615;49.304;10.576;2023-05-16T13:57:28;6.68;;;5.35;;
11121;SDS011;5615;49.304;10.576;2023-05-16T13:59:55;6.00;;;5.40;;
11121;SDS011;5615;49.304;10.576;2023-05-16T14:02:22;5.75;;;5.15;;
11121;SDS011;5615;49.304;10.576;2023-05-16T14:04:49;7.00;;;5.70;;
11121;SDS011;5615;49.304;10.576;2023-05-16T14:07:17;5.57;;;4.78;;
11121;SDS011;5615;49.304;10.576;2023-05-16T14:09:44;5.68;;;5.18;;
11121;SDS011;5615;49.304;10.576;2023-05-16T14:12:12;6.28;;;5.00;;
11121;SDS011;5615;49.304;10.576;2023-05-16T14:14:39;4.90;;;4.50;;
11121;SDS011;5615;49.304;10.576;2023-05-16T14:17:05;5.10;;;4.43;;
11121;SDS011;5615;49.304;10.576;2023-05-16T14:19:32;4.47;;;4.10;;
11121;SDS011;5615;49.304;10.576;2023-05-16T14:21:59;4.63;;;3.97;;
11121;SDS011;5615;49.304;10.576;2023-05-16T14:24:26;10.13;;;4.30;;
11121;SDS011;5615;49.304;10.576;2023-05-16T14:26:52;4.30;;;3.90;;
11121;SDS011;5615;49.304;10.576;2023-05-16T14:29:20;4.15;;;3.75;;
11121;SDS011;5615;49.304;10.576;2023-05-16T14:31:48;6.03;;;4.07;;
11121;SDS011;5615;49.304;10.576;2023-05-16T14:34:14;4.55;;;3.92;;